Wautoma, WI

8:48 PM CDT on May 05, 2015 (GMT -0500)
RAWS | | Change Station
CLOSE
Current Station
Personal Weather Station
Location: Wautoma, WI
Elevation: 856 ft
Nearby Weather Stations

Elev 856 ft 44.06 °N, 89.29 °W | Updated 36 minutes ago

Overcast
Overcast
56 °F
Feels Like 56 °F
N
4
Wind Variable Wind from ESE
Gusts 9.0 mph

Today
High -- | Low -- °F
--% Chance of Precip.
Yesterday
High -- | Low -- °F
Precip. -- in
5:43 AM 8:05 PM
Waning Gibbous, 96% visible
Pressure 30.23 in
Visibility 10.0 miles
Clouds Overcast 8500 ft
Dew Point 49 °F
Humidity 76%
Rainfall in
Snow Depth Not available.
UV 0 out of 12
Pollen 10.80 out of 12
Air Quality Not available.
Flu Activity Local Activity
METAR KY50 060056Z AUTO 11005KT 10SM OVC085 14/09 A3023 RMK AO2 TSNO T01380094 SLP236

More Conditions Fewer Conditions

Pressure 30.23 in
Visibility 10.0 miles
Clouds Overcast 8500 ft
Dew Point 49 °F
Humidity 76%
Rainfall in
Snow Depth Not available.
UV 0 out of 12
Pollen 10.80 out of 12
Air Quality Not available.
Flu Activity Local Activity
METAR KY50 060056Z AUTO 11005KT 10SM OVC085 14/09 A3023 RMK AO2 TSNO T01380094 SLP236

More Conditions Fewer Conditions

10-Day Weather Forecast

Almanac

Astronomy

May. 05, 2015 Rise Set
Actual Time
Civil Twilight
Nautical Twilight
Astronomical Twilight
Moon
Length of Visible Light
Length of Day
Tomorrow will be .
, % of the Moon is Illuminated

Today's Extremes

State Highs State Lows

Community

WunderPhotos

Upload Photos

1,819,036 photos uploaded!

WunderBlogs® & News

Nearby

Air Quality

  Air Quality AQ Index Pollutant
Not available.

Snow Depth

Station Depth Elevation

Earthquake Activity

City Distance Mag. Time & Date
Minimum magnitude displayed is 2.5.

Coastal Water Temperatures

Place Temperature

Stations

Nearby Weather Stations

Station Location Temp. Windchill Dew Point Humidity Wind Precip. Elev Updated Type